Johannesburg, South Africa
Current Conditions -  °F | °C
As of 3:00 PM on Thursday 27 Nov 2014 (Local Time) from FAOR Reporting Station
Few Clouds Few Clouds  
Wind Chill: 17°   Ceiling: Unl
Heat Index: 17°   Visibility: 6mi
Dew Point: 12°   Wind: 21mph
Humidity: 72%   Direction: 320°NW
Pressure: 30.06"   Gusts: NA
Location:  26.19°S, 28.04°E
Report Text: FAOR 271300Z 32018KT 9999 FEW015 17/12 Q1018 NOSIG
Loading
Personal Weather Stations






























Interactive Weather Map New forecast layout! Learn more

10-Day Weather Forecast

Advertisements
Track Severe Weather on mobile